Victor Giraldo

Olheiro - Millonarios
19 Ago 2027
Quinta-feira
Processo

Personalidade

Adaptabilidade (3) Ambição (4) Controvérsia (6) Lealdade (9) Pressão (3) Profissionalismo (16) Espírito Esportivo (15) Temperamento (16)

Perfil

Estilo de Treinamento Democrático
Licença Continental B
Determinação 14
Gestão de Pessoas 10
Motivação 11
Disciplina 8
Satisfação no Trabalho
100%
Fadiga
0%
Função Olheiro
Salário 98.8K p/s
Contrato 14.03.2029

Desempenho

Comportamento Bom
Eficácia do Treinamento
45%
Desenvolvimento do Jogador
70%
Prevenção de Lesões
55%
Implementação Tática
35%

Eventos Recentes

Participou de uma reunião de recrutamento 7d atrás
Recomendou um alvo de transferência 7d atrás
Participou de uma reunião de recrutamento 14d atrás
Recomendou um alvo de transferência 14d atrás
Participou de uma reunião de recrutamento 14d atrás
Participou de uma reunião de recrutamento 21d atrás
Recomendou um alvo de transferência 21d atrás
Participou de uma reunião de recrutamento 28d atrás

Monitorando agora

192
Jogador Clube Status Habilidade Confiança Observado Última observação Último voto
Diego Martínez Jaguares Ativo 124 / 124 44% 2 / 2m 21.07.2027 -
Brandon Caicedo Jaguares Ativo 109 / 109 30% 1 / 1m 21.07.2027 -
Mohamed Belloumi Hull City Ativo 146 / 143 40% 1 31.05.2027 -
Morgan Whittaker Middlesbrough Ativo 135 / 130 40% 1 31.05.2027 -
Jack McGlynn Stoke City Ativo 128 / 140 40% 1 31.05.2027 -
Filip Marschall Stevenage Ativo 122 / 108 40% 4 29.05.2027 -
Jamie Cumming Oxford United Ativo 135 / 134 40% 2 28.05.2027 -
Sergio Barlocco Trento Ativo 109 / 111 40% 1 28.05.2027 -
Kostantis Tzolakis Hull City Ativo 138 / 138 40% 1 28.05.2027 -
Daniel Iversen Preston Ativo 128 / 130 40% 4 27.05.2027 -
Caoimhin Kelleher Brentford Ativo 151 / 150 40% 3 27.05.2027 -
Lorenzo Palmisani Frosinone Ativo 126 / 131 40% 4 27.05.2027 -
Pol Tristán Barnsley Ativo 112 / 113 40% 2 26.05.2027 -
Samuele Perisan Audace Cerignola Ativo 115 / 112 40% 2 26.05.2027 -
Nicolas Madsen Queens Park Rangers Ativo 138 / 122 40% 1 25.05.2027 -
Di'Shon Bernard Sheffield Wednesday Ativo 114 / 114 40% 1 25.05.2027 -
Radek Vítek Middlesbrough Ativo 133 / 147 40% 3 24.05.2027 -
Quinten Timber Crystal Palace Ativo 157 / 153 40% 5 24.05.2027 -
Welington Southampton Ativo 140 / 131 40% 2 24.05.2027 -
Justin Bijlow Genoa Ativo 151 / 145 40% 1 24.05.2027 -
Max Bird Birmingham Ativo 137 / 139 40% 4 23.05.2027 -
Bobby Thomas Coventry City Ativo 139 / 127 40% 2 23.05.2027 -
Harry Clarke Preston Ativo 137 / 123 40% 5 23.05.2027 -
Francesco D'Alterio Ternana Ativo 115 / 106 40% 4 21.05.2027 -
Aidan Morris Middlesbrough Ativo 122 / 136 40% 4 20.05.2027 -
Tariq Lamptey Queens Park Rangers Ativo 139 / 136 40% 2 20.05.2027 -
Murphy Cooper Plymouth Argyle Ativo 114 / 118 40% 3 19.05.2027 -
Alfie Whiteman Newport County Ativo 100 / 101 40% 3 15.05.2027 -
Zach Hemming Chesterfield Ativo 104 / 115 40% 1 15.05.2027 -
James Trafford Leeds United Ativo 153 / 148 40% 2 13.05.2027 -
Andrea Zaccagno Torres Ativo 105 / 106 40% 1 13.05.2027 -
Shea Charles Southampton Ativo 144 / 144 40% 4 12.05.2027 -
Ousmane Diomande Nottingham Forest Ativo 145 / 162 40% 3 12.05.2027 -
Ryan Sessegnon Fulham Ativo 150 / 148 40% 5 10.05.2027 -
Alessandro Buongiorno Sassuolo Ativo 158 / 157 40% 2 10.05.2027 -
Kristoffer Lund Birmingham Ativo 127 / 128 40% 3 10.05.2027 -
Will Dennis Milton Keynes Dons Ativo 102 / 112 40% 3 09.05.2027 -
Luke McNally Bristol City Ativo 126 / 124 40% 1 08.05.2027 -
Balázs Tóth Blackburn Rovers Ativo 133 / 122 40% 1 06.05.2027 -
Riccardo Gagno Vicenza Ativo 118 / 124 40% 2 05.05.2027 -
Arijanet Murić Sassuolo Ativo 149 / 146 40% 1 02.05.2027 -
Jacob Widell Zetterström Derby County Ativo 139 / 131 40% 1 02.05.2027 -
Robin Roefs Sunderland Ativo 153 / 152 40% 2 30.04.2027 -
Leif Davis Ipswich Town Ativo 132 / 144 40% 2 28.04.2027 -
Juan Mosquera Sheffield Wednesday Ativo 133 / 120 40% 1 28.04.2027 -
Adrien Truffert Bournemouth Ativo 153 / 153 40% 7 27.04.2027 Observar
Adam Wharton Crystal Palace Ativo 151 / 151 40% 4 27.04.2027 -
Williams Manyama SuperSport United Ativo 115 / 111 40% 3 27.04.2027 -
Milan van Ewijk Mansfield Town Ativo 125 / 137 40% 4 25.04.2027 -
Lewis Ferguson Bologna Ativo 139 / 145 40% 1 25.04.2027 -
Florentino Luís Ipswich Town Ativo 149 / 143 40% 9 21.04.2027 -
Callum Doyle Wrexham Ativo 126 / 127 40% 4 21.04.2027 -
Lucas Da Cunha Como Ativo 137 / 152 40% 1 21.04.2027 -
Elia Boseggia Novara Ativo 107 / 114 40% 1 21.04.2027 -
Imrân Louza Watford Ativo 139 / 132 40% 1 19.04.2027 -
Bradley Mabunda SuperSport United Ativo 121 / 113 40% 1 19.04.2027 -
Michele Cerofolini Bari Ativo 122 / 121 40% 1 16.04.2027 -
Brian De Keersmaecker Oxford United Ativo 115 / 121 40% 3 15.04.2027 -
Yussif Saidu Zaragoza Ativo 127 / 122 40% 3 15.04.2027 -
Lukas Jensen Millwall Ativo 119 / 113 40% 1 14.04.2027 -
Jordan Amissah Burton Albion Ativo 113 / 102 40% 1 14.04.2027 -
Mandla Erasmus SuperSport United Ativo 116 / 118 40% 5 04.04.2027 -
Christian Krasnodar Ativo 139 / 131 40% 5 03.04.2027 -
Ronnie Edwards Queens Park Rangers Ativo 133 / 125 40% 1 02.04.2027 -
Josh Tymon Swansea City Ativo 120 / 121 40% 2 01.04.2027 -
Gabriel Gudmundsson Leeds United Ativo 134 / 136 40% 1 01.04.2027 -
Andrea Carboni Monza Ativo 125 / 134 40% 1 31.03.2027 -
Yehor Yarmoliuk Brentford Ativo 149 / 145 40% 2 27.03.2027 -
Adam Randell Bristol City Ativo 124 / 125 40% 1 26.03.2027 -
Nathan Collins Brentford Ativo 150 / 148 40% 4 24.03.2027 -
Ethan Galbraith Swansea City Ativo 140 / 129 40% 2 22.03.2027 -
Derry Murkin Derby County Ativo 132 / 134 40% 2 21.03.2027 -
Nicolò Rovella Lazio Ativo 146 / 143 40% 1 21.03.2027 -
Murillo Nottingham Forest Ativo 144 / 146 40% 1 10.03.2027 -
Juanlu Bournemouth Ativo 148 / 146 40% 4 08.03.2027 -
Japhet Tanganga Sheffield United Ativo 136 / 132 40% 1 07.03.2027 -
Ilay Camara Anderlecht Ativo 136 / 138 40% 2 01.03.2027 -
Will Fish Cardiff City Ativo 117 / 122 40% 1 01.03.2027 -
Michael Kayode Brentford Ativo 144 / 145 40% 2 28.02.2027 -
Aaron Hickey Brentford Ativo 140 / 140 40% 1 26.02.2027 -
Israel Reyes CSKA Moscow Ativo 141 / 131 40% 8 24.02.2027 -
Óscar Mingueza Crystal Palace Ativo 151 / 156 40% 5 24.02.2027 -
Nicolás Fernández Mercau Shakhtar Ativo 140 / 132 40% 2 24.02.2027 -
Tomás Ribeiro Cultural Leonesa Ativo 114 / 113 40% 3 22.02.2027 -
Ethan Pye Stockport County Ativo 113 / 117 40% 1 21.02.2027 -
Noah Sadiki Sunderland Ativo 146 / 151 40% 1 14.02.2027 -
Gustavo Mantuan Zenit Ativo 134 / 134 40% 1 08.02.2027 -
Jacques Ekomié Wrexham Ativo 125 / 131 40% 2 04.02.2027 -
Toby Collyer West Bromwich Albion Ativo 136 / 132 40% 3 04.02.2027 -
Dara O'Shea Ipswich Town Ativo 142 / 134 40% 2 30.01.2027 -
Álex Centelles Levski Ativo 118 / 124 40% 1 22.01.2027 -
Rubens Dinamo Moscow Ativo 134 / 127 40% 1 19.01.2027 -
Robert-Jan Vanwesemael Sint-Truiden Ativo 128 / 112 40% 1 19.01.2027 -
Marlon Gomes Shakhtar Ativo 141 / 142 40% 1 16.01.2027 -
Victor Parada Spartak Moscow Ativo 131 / 126 40% 1 15.01.2027 -
Nazareno Colombo Racing Club Ativo 130 / 123 40% 1 15.01.2027 -
Kevin Amaro Racing Genk Ativo 124 / 129 40% 1 11.01.2027 -
Pelle Mattsson Norwich City Ativo 129 / 127 40% 1 08.01.2027 -
Jhon Velásquez Fortaleza CEIF Ativo 102 / 114 72% 1 02.12.2026 Aprovar
Franco Ibarra Rosario Central Ativo 125 / 125 40% 1 01.12.2026 -
Augusto Schott Talleres Ativo 120 / 124 40% 1 01.12.2026 -
Yousef Salech Cardiff City Ativo 121 / 117 40% 1 30.11.2026 -
Samuel Essende Young Boys Ativo 124 / 130 40% 1 30.11.2026 -
Santiago González Tigre Ativo 133 / 129 40% 4 28.11.2026 -
Georges-Kévin Nkoudou Al-Diriyah Ativo 140 / 129 40% 1 28.11.2026 -
Lewis Morgan SuperSport United Ativo 128 / 116 40% 3 27.11.2026 -
Joaquín García Vélez Ativo 126 / 127 40% 4 26.11.2026 -
Ulises Ortegoza Talleres Ativo 121 / 125 40% 2 24.11.2026 -
Rubén Duarte Legia Ativo 132 / 127 40% 2 24.11.2026 -
Alex Luna Instituto Ativo 121 / 128 40% 2 24.11.2026 -
Marco Asensio Fenerbahce Ativo 149 / 150 40% 3 22.11.2026 -
Gastón Lodico Racing Club Ativo 122 / 125 40% 1 22.11.2026 -
Randall Rodríguez River Plate Ativo 109 / 117 40% 2 21.11.2026 -
Diego Rossi Monterrey Ativo 131 / 130 40% 4 20.11.2026 -
Ozziel Herrera Tigres Ativo 118 / 124 40% 4 20.11.2026 -
Luis Romo Guadalajara Ativo 130 / 131 40% 5 20.11.2026 -
Oussama Idrissi Pachuca Ativo 131 / 132 40% 5 19.11.2026 -
Franco Pardo Santos Laguna Ativo 126 / 121 40% 2 18.11.2026 -
Víctor Guzmán Monterrey Ativo 137 / 131 40% 1 18.11.2026 -
Aarón Molinas Defensa y Justicia Ativo 131 / 123 40% 1 18.11.2026 -
Alan Cervantes Club America Ativo 132 / 122 40% 1 18.11.2026 -
Jesús Ricardo Angulo Toluca Ativo 130 / 128 40% 3 15.11.2026 -
Orbelín Pineda Monterrey Ativo 142 / 147 40% 3 15.11.2026 -
Tiago Palacios Estudiantes Ativo 122 / 134 40% 3 15.11.2026 -
Richard Ledezma Guadalajara Ativo 128 / 132 40% 3 14.11.2026 -
José Castillo Guadalajara Ativo 124 / 125 40% 1 14.11.2026 -
Santiago Núñez Estudiantes Ativo 132 / 127 40% 2 13.11.2026 -
Kevin Álvarez Club America Ativo 125 / 124 40% 2 13.11.2026 -
Nathan Silva Monterrey Ativo 127 / 125 40% 1 13.11.2026 -
Carlos Rodríguez Cruz Azul Ativo 133 / 144 40% 3 12.11.2026 -
Leandro Lozano Boca Juniors Ativo 120 / 121 40% 1 12.11.2026 -
Felipe Peña Biafore Lanús Ativo 132 / 124 40% 4 11.11.2026 -
Rômulo Tigres Ativo 125 / 114 40% 1 11.11.2026 -
Richard Martinez Veracruz Ativo 122 / 133 40% 3 10.11.2026 -
Facundo Miño Deportivo Riestra Ativo 118 / 125 40% 1 10.11.2026 -
Siro Rosané Estudiantes Ativo 120 / 117 40% 1 10.11.2026 -
Gerardo Arteaga Monterrey Ativo 119 / 135 40% 7 08.11.2026 -
Damián Fernández Defensa y Justicia Ativo 126 / 129 40% 1 08.11.2026 -
Ricardo Chávez Monterrey Ativo 122 / 128 40% 1 08.11.2026 -
Erick Reyes Toluca Ativo 131 / 138 40% 1 07.11.2026 Mais informações
Alejandro Zendejas Club America Ativo 135 / 131 40% 5 06.11.2026 -
Juan Pablo Domínguez Leon Ativo 129 / 134 40% 2 05.11.2026 -
Nicolás Castro Toluca Ativo 137 / 118 40% 2 04.11.2026 -
Iván Villalba Independiente Rivadavia Ativo 118 / 119 40% 1 03.11.2026 -
Marcelino Moreno Lanús Ativo 125 / 130 40% 1 02.11.2026 -
Pedro Vite Pumas UNAM Ativo 130 / 116 40% 1 29.10.2026 -
Jesús Angulo Tigres Ativo 137 / 135 40% 1 28.10.2026 -
Joaquim Tigres Ativo 131 / 133 40% 1 28.10.2026 -
Salvador Reyes Leon Ativo 129 / 129 40% 1 27.10.2026 -
Jaminton Campaz Rosario Central Ativo 133 / 120 40% 1 26.10.2026 -
Fernando Valenzuela Queretaro Ativo 124 / 133 40% 3 22.10.2026 -
Carlos Gruezo Santos Laguna Ativo 131 / 118 40% 2 22.10.2026 -
Beau Reus Waasland-Beveren Ativo 130 / 127 40% 3 21.10.2026 -
Emanuel Coronel Rosario Central Ativo 133 / 129 40% 1 21.10.2026 -
Willer Ditta Cruz Azul Ativo 134 / 133 40% 1 21.10.2026 -
Manuel Rios La Equidad Ativo 101 / 101 40% 2 18.10.2026 -
Killian Cahill Leyton Orient Ativo 108 / 114 40% 2 18.10.2026 -
Ángel Maciel Tacuarembo Ativo 105 / 104 40% 1 17.10.2026 -
Nahuel Galardi Maipú Ativo 105 / 109 40% 1 16.10.2026 -
Tomáš Frühwald Bohemians 1905 Ativo 110 / 115 40% 1 13.10.2026 -
Vincent Edafe Warri Wolves Ativo 85 / 89 40% 1 13.10.2026 -
Miguel Acosta Argentinos Juniors Ativo 113 / 105 40% 1 11.10.2026 -
Jorge Sánchez Atlas Ativo 122 / 135 40% 2 09.10.2026 -
Gino Santilli Banfield Ativo 109 / 115 40% 1 09.10.2026 -
Facundo Vila Estudiantes Ativo 101 / 105 40% 1 07.10.2026 -
Duvan Rangel La Equidad Ativo 132 / 138 40% 2 06.10.2026 -
Brian Rodríguez Club America Ativo 127 / 128 40% 2 06.10.2026 -
Álvaro Angulo Pumas UNAM Ativo 134 / 131 40% 4 06.10.2026 -
Federico Varese Racing Ativo 109 / 116 40% 1 30.09.2026 -
Fernando Beltrán Leon Ativo 120 / 126 40% 1 28.09.2026 -
Gustavo Calderari Colegiales Ativo 92 / 102 40% 1 23.09.2026 -
Bryan González Guadalajara Ativo 123 / 136 40% 1 16.09.2026 -
Ángel González Libertad Ativo 110 / 111 40% 1 13.09.2026 -
Leonardo Gonzalez Cortulua Ativo 126 / 120 40% 1 11.09.2026 -
Lucas Souto Defensa y Justicia Ativo 118 / 121 40% 1 08.09.2026 -
Omar Campos Cruz Azul Ativo 130 / 116 40% 1 08.09.2026 -
Sergio Reguilón Inter Miami CF Ativo 146 / 130 40% 2 07.09.2026 -
Aliou Dieng Valencia Ativo 131 / 134 40% 1 07.09.2026 -
Adalberto Carrasquilla Pumas UNAM Ativo 131 / 128 40% 1 05.09.2026 -
Agustín Palavecino Cruz Azul Ativo 143 / 133 40% 2 04.09.2026 -
Gonzalo Piovi Cruz Azul Ativo 124 / 125 40% 2 30.08.2026 -
Allan Saint-Maximin Charlotte Football Club Ativo 139 / 142 40% 1 27.08.2026 -
Víctor Guzmán Toluca Ativo 135 / 128 40% 1 25.08.2026 -
Juninho Pumas UNAM Ativo 120 / 134 40% 4 24.08.2026 -
Paxten Aaronson Colorado Rapids Ativo 128 / 126 40% 1 24.08.2026 -
Leonardo Borja La Equidad Ativo 150 / 150 40% 1 22.08.2026 -
Cristian Roldan Seattle Sounders Ativo 133 / 120 40% 1 22.08.2026 -
Ryan Gauld Vancouver Whitecaps Ativo 127 / 140 40% 1 20.08.2026 -
Efraín Álvarez Guadalajara Ativo 122 / 122 40% 1 16.08.2026 -
Rodrigo Echeverría Leon Ativo 121 / 131 40% 1 16.08.2026 -
Diego Lainez Tigres Ativo 119 / 133 40% 1 11.08.2026 -
Pablo Durán Celta Ativo 135 / 133 40% 1 01.08.2026 -